sensor_id;sensor_type;location;lat;lon;timestamp;P1;durP1;ratioP1;P2;durP2;ratioP2
85218;SDS011;75606;40.152;44.490;2024-03-23T00:53:53;14.00;;;7.05;;
85218;SDS011;75606;40.152;44.490;2024-03-23T00:56:19;12.60;;;6.78;;
85218;SDS011;75606;40.152;44.490;2024-03-23T00:58:44;11.20;;;6.47;;
85218;SDS011;75606;40.152;44.490;2024-03-23T01:01:10;11.02;;;6.53;;
85218;SDS011;75606;40.152;44.490;2024-03-23T01:03:36;12.70;;;6.50;;
85218;SDS011;75606;40.152;44.490;2024-03-23T01:06:02;13.70;;;6.55;;
85218;SDS011;75606;40.152;44.490;2024-03-23T01:08:29;10.15;;;6.00;;
85218;SDS011;75606;40.152;44.490;2024-03-23T01:10:58;13.27;;;5.88;;
85218;SDS011;75606;40.152;44.490;2024-03-23T01:13:24;9.90;;;5.55;;
85218;SDS011;75606;40.152;44.490;2024-03-23T01:15:55;10.38;;;5.88;;
85218;SDS011;75606;40.152;44.490;2024-03-23T01:18:22;10.15;;;5.20;;
85218;SDS011;75606;40.152;44.490;2024-03-23T01:20:48;13.38;;;6.95;;
85218;SDS011;75606;40.152;44.490;2024-03-23T01:23:14;11.85;;;6.40;;
85218;SDS011;75606;40.152;44.490;2024-03-23T01:25:40;13.32;;;6.10;;
85218;SDS011;75606;40.152;44.490;2024-03-23T01:28:06;14.27;;;7.32;;
85218;SDS011;75606;40.152;44.490;2024-03-23T01:30:33;11.82;;;6.70;;
85218;SDS011;75606;40.152;44.490;2024-03-23T01:32:59;13.57;;;6.90;;
85218;SDS011;75606;40.152;44.490;2024-03-23T01:35:27;13.55;;;6.30;;
85218;SDS011;75606;40.152;44.490;2024-03-23T01:37:53;10.32;;;6.13;;
85218;SDS011;75606;40.152;44.490;2024-03-23T01:40:19;12.02;;;5.93;;
85218;SDS011;75606;40.152;44.490;2024-03-23T01:43:06;12.50;;;4.50;;
85218;SDS011;75606;40.152;44.490;2024-03-23T01:45:31;11.65;;;5.28;;
85218;SDS011;75606;40.152;44.490;2024-03-23T01:47:57;8.25;;;4.68;;
85218;SDS011;75606;40.152;44.490;2024-03-23T01:50:24;6.50;;;3.92;;
85218;SDS011;75606;40.152;44.490;2024-03-23T01:52:50;8.88;;;4.65;;
85218;SDS011;75606;40.152;44.490;2024-03-23T01:55:18;9.07;;;4.75;;
85218;SDS011;75606;40.152;44.490;2024-03-23T01:57:44;10.77;;;5.50;;
85218;SDS011;75606;40.152;44.490;2024-03-23T02:00:10;8.25;;;4.72;;
85218;SDS011;75606;40.152;44.490;2024-03-23T02:02:43;7.60;;;4.10;;
85218;SDS011;75606;40.152;44.490;2024-03-23T02:05:10;6.80;;;3.60;;
85218;SDS011;75606;40.152;44.490;2024-03-23T02:07:40;7.07;;;4.43;;
85218;SDS011;75606;40.152;44.490;2024-03-23T02:10:06;8.40;;;4.18;;
85218;SDS011;75606;40.152;44.490;2024-03-23T02:12:33;6.95;;;4.07;;
85218;SDS011;75606;40.152;44.490;2024-03-23T02:14:59;6.18;;;4.10;;
85218;SDS011;75606;40.152;44.490;2024-03-23T02:17:24;6.03;;;3.92;;
85218;SDS011;75606;40.152;44.490;2024-03-23T02:19:50;6.05;;;4.32;;
85218;SDS011;75606;40.152;44.490;2024-03-23T02:22:16;7.88;;;4.32;;
85218;SDS011;75606;40.152;44.490;2024-03-23T02:24:42;8.48;;;4.15;;
85218;SDS011;75606;40.152;44.490;2024-03-23T02:27:08;6.93;;;4.00;;
85218;SDS011;75606;40.152;44.490;2024-03-23T02:29:34;5.97;;;4.05;;
85218;SDS011;75606;40.152;44.490;2024-03-23T02:31:59;8.48;;;4.13;;
85218;SDS011;75606;40.152;44.490;2024-03-23T02:34:26;9.45;;;4.43;;
85218;SDS011;75606;40.152;44.490;2024-03-23T02:36:52;12.63;;;5.85;;
85218;SDS011;75606;40.152;44.490;2024-03-23T02:39:17;18.33;;;6.68;;
85218;SDS011;75606;40.152;44.490;2024-03-23T02:41:43;18.10;;;8.25;;
85218;SDS011;75606;40.152;44.490;2024-03-23T02:44:10;17.90;;;7.50;;
85218;SDS011;75606;40.152;44.490;2024-03-23T02:46:39;23.23;;;7.78;;
85218;SDS011;75606;40.152;44.490;2024-03-23T02:49:04;16.83;;;6.70;;
85218;SDS011;75606;40.152;44.490;2024-03-23T02:51:31;17.13;;;6.80;;
85218;SDS011;75606;40.152;44.490;2024-03-23T02:53:57;17.58;;;6.68;;
85218;SDS011;75606;40.152;44.490;2024-03-23T02:56:22;15.57;;;6.50;;
85218;SDS011;75606;40.152;44.490;2024-03-23T02:58:48;16.83;;;6.78;;
85218;SDS011;75606;40.152;44.490;2024-03-23T03:01:14;12.63;;;6.20;;
85218;SDS011;75606;40.152;44.490;2024-03-23T03:03:40;12.48;;;6.97;;
85218;SDS011;75606;40.152;44.490;2024-03-23T03:06:05;13.32;;;6.78;;
85218;SDS011;75606;40.152;44.490;2024-03-23T03:08:31;12.38;;;6.55;;
85218;SDS011;75606;40.152;44.490;2024-03-23T03:10:57;14.43;;;6.97;;
85218;SDS011;75606;40.152;44.490;2024-03-23T03:13:25;15.30;;;7.18;;
85218;SDS011;75606;40.152;44.490;2024-03-23T03:15:50;12.35;;;7.18;;
85218;SDS011;75606;40.152;44.490;2024-03-23T03:18:16;11.77;;;6.85;;
85218;SDS011;75606;40.152;44.490;2024-03-23T03:20:42;12.75;;;7.13;;
85218;SDS011;75606;40.152;44.490;2024-03-23T03:23:09;13.20;;;7.90;;
85218;SDS011;75606;40.152;44.490;2024-03-23T03:25:34;15.18;;;8.40;;
85218;SDS011;75606;40.152;44.490;2024-03-23T03:28:00;15.05;;;8.95;;
85218;SDS011;75606;40.152;44.490;2024-03-23T03:30:27;17.08;;;9.23;;
85218;SDS011;75606;40.152;44.490;2024-03-23T03:32:53;14.05;;;7.95;;
85218;SDS011;75606;40.152;44.490;2024-03-23T03:35:19;16.20;;;7.82;;
85218;SDS011;75606;40.152;44.490;2024-03-23T03:37:44;11.50;;;6.70;;
85218;SDS011;75606;40.152;44.490;2024-03-23T03:40:10;12.95;;;6.85;;
85218;SDS011;75606;40.152;44.490;2024-03-23T03:42:37;12.70;;;6.35;;
85218;SDS011;75606;40.152;44.490;2024-03-23T03:45:02;13.50;;;6.55;;
85218;SDS011;75606;40.152;44.490;2024-03-23T03:47:29;15.30;;;7.38;;
85218;SDS011;75606;40.152;44.490;2024-03-23T03:49:55;12.05;;;5.43;;
85218;SDS011;75606;40.152;44.490;2024-03-23T03:52:21;11.88;;;5.80;;
85218;SDS011;75606;40.152;44.490;2024-03-23T03:54:47;10.95;;;5.97;;
85218;SDS011;75606;40.152;44.490;2024-03-23T03:57:12;12.85;;;6.63;;
85218;SDS011;75606;40.152;44.490;2024-03-23T03:59:38;13.38;;;6.00;;
85218;SDS011;75606;40.152;44.490;2024-03-23T04:02:04;9.98;;;6.13;;
85218;SDS011;75606;40.152;44.490;2024-03-23T04:04:29;13.07;;;6.97;;
85218;SDS011;75606;40.152;44.490;2024-03-23T04:07:01;9.88;;;5.75;;
85218;SDS011;75606;40.152;44.490;2024-03-23T04:09:27;11.30;;;5.57;;
85218;SDS011;75606;40.152;44.490;2024-03-23T04:11:53;13.20;;;6.30;;
85218;SDS011;75606;40.152;44.490;2024-03-23T04:14:18;12.27;;;6.45;;
85218;SDS011;75606;40.152;44.490;2024-03-23T04:16:44;9.52;;;5.70;;
85218;SDS011;75606;40.152;44.490;2024-03-23T04:19:10;10.52;;;5.50;;
85218;SDS011;75606;40.152;44.490;2024-03-23T04:21:36;9.13;;;5.93;;
85218;SDS011;75606;40.152;44.490;2024-03-23T04:24:03;8.68;;;5.22;;
85218;SDS011;75606;40.152;44.490;2024-03-23T04:26:29;10.70;;;4.47;;
85218;SDS011;75606;40.152;44.490;2024-03-23T04:28:54;9.02;;;4.82;;
85218;SDS011;75606;40.152;44.490;2024-03-23T04:31:20;9.90;;;5.20;;
85218;SDS011;75606;40.152;44.490;2024-03-23T04:33:49;8.13;;;4.22;;
85218;SDS011;75606;40.152;44.490;2024-03-23T04:36:14;11.73;;;6.93;;
85218;SDS011;75606;40.152;44.490;2024-03-23T04:38:40;11.68;;;6.55;;
85218;SDS011;75606;40.152;44.490;2024-03-23T04:41:06;9.60;;;5.68;;
85218;SDS011;75606;40.152;44.490;2024-03-23T04:43:32;9.50;;;5.25;;
85218;SDS011;75606;40.152;44.490;2024-03-23T04:45:57;11.45;;;6.57;;
85218;SDS011;75606;40.152;44.490;2024-03-23T04:48:23;8.93;;;5.40;;
85218;SDS011;75606;40.152;44.490;2024-03-23T04:50:49;12.45;;;7.10;;
85218;SDS011;75606;40.152;44.490;2024-03-23T04:53:17;10.25;;;6.38;;
85218;SDS011;75606;40.152;44.490;2024-03-23T04:55:43;10.00;;;6.28;;
85218;SDS011;75606;40.152;44.490;2024-03-23T04:58:09;10.07;;;6.07;;
85218;SDS011;75606;40.152;44.490;2024-03-23T05:00:34;11.70;;;7.03;;
85218;SDS011;75606;40.152;44.490;2024-03-23T05:03:00;11.35;;;6.05;;
85218;SDS011;75606;40.152;44.490;2024-03-23T05:05:26;9.02;;;5.10;;
85218;SDS011;75606;40.152;44.490;2024-03-23T05:07:54;11.20;;;5.93;;
85218;SDS011;75606;40.152;44.490;2024-03-23T05:10:19;7.15;;;4.95;;
85218;SDS011;75606;40.152;44.490;2024-03-23T05:12:45;7.18;;;4.90;;
85218;SDS011;75606;40.152;44.490;2024-03-23T05:15:11;7.10;;;5.18;;
85218;SDS011;75606;40.152;44.490;2024-03-23T05:17:37;10.70;;;6.05;;
85218;SDS011;75606;40.152;44.490;2024-03-23T05:20:05;9.18;;;5.95;;
85218;SDS011;75606;40.152;44.490;2024-03-23T05:22:35;9.23;;;6.20;;
85218;SDS011;75606;40.152;44.490;2024-03-23T05:25:01;7.50;;;5.35;;
85218;SDS011;75606;40.152;44.490;2024-03-23T05:27:29;8.27;;;5.47;;
85218;SDS011;75606;40.152;44.490;2024-03-23T05:29:56;7.63;;;6.00;;
85218;SDS011;75606;40.152;44.490;2024-03-23T05:32:22;13.60;;;6.32;;
85218;SDS011;75606;40.152;44.490;2024-03-23T05:34:47;11.10;;;6.00;;
85218;SDS011;75606;40.152;44.490;2024-03-23T05:37:15;8.52;;;5.45;;
85218;SDS011;75606;40.152;44.490;2024-03-23T05:39:41;5.43;;;3.65;;
85218;SDS011;75606;40.152;44.490;2024-03-23T05:42:06;11.45;;;6.90;;
85218;SDS011;75606;40.152;44.490;2024-03-23T05:44:33;7.13;;;4.60;;
85218;SDS011;75606;40.152;44.490;2024-03-23T05:46:58;13.15;;;5.78;;
85218;SDS011;75606;40.152;44.490;2024-03-23T05:49:24;15.52;;;6.90;;
85218;SDS011;75606;40.152;44.490;2024-03-23T05:51:50;13.65;;;6.88;;
85218;SDS011;75606;40.152;44.490;2024-03-23T05:54:15;16.92;;;9.55;;
85218;SDS011;75606;40.152;44.490;2024-03-23T05:56:41;11.82;;;8.20;;
85218;SDS011;75606;40.152;44.490;2024-03-23T05:59:07;14.30;;;7.40;;
85218;SDS011;75606;40.152;44.490;2024-03-23T06:01:33;11.57;;;6.88;;
85218;SDS011;75606;40.152;44.490;2024-03-23T06:03:58;18.95;;;11.02;;
85218;SDS011;75606;40.152;44.490;2024-03-23T06:06:26;16.58;;;9.35;;
85218;SDS011;75606;40.152;44.490;2024-03-23T06:08:52;12.43;;;7.65;;
85218;SDS011;75606;40.152;44.490;2024-03-23T06:11:17;14.18;;;8.27;;
85218;SDS011;75606;40.152;44.490;2024-03-23T06:13:50;8.50;;;5.82;;
85218;SDS011;75606;40.152;44.490;2024-03-23T06:16:16;11.10;;;6.38;;
85218;SDS011;75606;40.152;44.490;2024-03-23T06:18:42;10.07;;;6.68;;
85218;SDS011;75606;40.152;44.490;2024-03-23T06:21:12;12.52;;;6.85;;
85218;SDS011;75606;40.152;44.490;2024-03-23T06:23:39;19.35;;;7.45;;
85218;SDS011;75606;40.152;44.490;2024-03-23T06:26:05;10.75;;;6.18;;
85218;SDS011;75606;40.152;44.490;2024-03-23T06:28:30;8.32;;;5.72;;
85218;SDS011;75606;40.152;44.490;2024-03-23T06:30:56;9.50;;;5.80;;
85218;SDS011;75606;40.152;44.490;2024-03-23T06:33:22;7.47;;;5.22;;
85218;SDS011;75606;40.152;44.490;2024-03-23T06:35:51;7.30;;;4.95;;
85218;SDS011;75606;40.152;44.490;2024-03-23T06:38:18;7.07;;;4.03;;
85218;SDS011;75606;40.152;44.490;2024-03-23T06:40:43;5.10;;;2.95;;
85218;SDS011;75606;40.152;44.490;2024-03-23T06:43:13;6.85;;;4.43;;
85218;SDS011;75606;40.152;44.490;2024-03-23T06:45:39;6.90;;;4.45;;
85218;SDS011;75606;40.152;44.490;2024-03-23T06:48:05;6.18;;;4.22;;
85218;SDS011;75606;40.152;44.490;2024-03-23T06:50:33;8.73;;;4.93;;
85218;SDS011;75606;40.152;44.490;2024-03-23T06:52:59;8.10;;;4.10;;
85218;SDS011;75606;40.152;44.490;2024-03-23T06:55:27;7.00;;;4.43;;
85218;SDS011;75606;40.152;44.490;2024-03-23T06:57:55;9.00;;;4.57;;
85218;SDS011;75606;40.152;44.490;2024-03-23T07:00:24;7.22;;;4.88;;
85218;SDS011;75606;40.152;44.490;2024-03-23T07:02:50;6.70;;;4.13;;
85218;SDS011;75606;40.152;44.490;2024-03-23T07:05:16;7.20;;;4.10;;
85218;SDS011;75606;40.152;44.490;2024-03-23T07:07:41;12.45;;;5.07;;
85218;SDS011;75606;40.152;44.490;2024-03-23T07:10:07;9.82;;;4.47;;
85218;SDS011;75606;40.152;44.490;2024-03-23T07:12:33;8.00;;;4.78;;
85218;SDS011;75606;40.152;44.490;2024-03-23T07:14:58;9.07;;;4.70;;
85218;SDS011;75606;40.152;44.490;2024-03-23T07:17:24;10.18;;;5.13;;
85218;SDS011;75606;40.152;44.490;2024-03-23T07:19:50;10.13;;;4.82;;
85218;SDS011;75606;40.152;44.490;2024-03-23T07:22:15;5.70;;;3.72;;
85218;SDS011;75606;40.152;44.490;2024-03-23T07:24:41;4.57;;;2.22;;
85218;SDS011;75606;40.152;44.490;2024-03-23T07:27:06;9.93;;;3.28;;
85218;SDS011;75606;40.152;44.490;2024-03-23T07:29:35;9.60;;;5.30;;
85218;SDS011;75606;40.152;44.490;2024-03-23T07:32:01;17.40;;;7.07;;
85218;SDS011;75606;40.152;44.490;2024-03-23T07:34:27;9.60;;;5.22;;
85218;SDS011;75606;40.152;44.490;2024-03-23T07:36:53;14.35;;;5.28;;
85218;SDS011;75606;40.152;44.490;2024-03-23T07:39:18;13.40;;;6.15;;
85218;SDS011;75606;40.152;44.490;2024-03-23T07:41:44;11.63;;;6.00;;
85218;SDS011;75606;40.152;44.490;2024-03-23T07:44:10;7.72;;;3.40;;
85218;SDS011;75606;40.152;44.490;2024-03-23T07:46:36;14.45;;;3.03;;
85218;SDS011;75606;40.152;44.490;2024-03-23T07:49:04;6.07;;;3.20;;
85218;SDS011;75606;40.152;44.490;2024-03-23T07:51:29;6.78;;;2.72;;
85218;SDS011;75606;40.152;44.490;2024-03-23T07:53:55;5.97;;;3.15;;
85218;SDS011;75606;40.152;44.490;2024-03-23T07:56:21;8.30;;;3.35;;
85218;SDS011;75606;40.152;44.490;2024-03-23T07:58:47;11.68;;;4.03;;
85218;SDS011;75606;40.152;44.490;2024-03-23T08:01:16;9.98;;;3.78;;
85218;SDS011;75606;40.152;44.490;2024-03-23T08:03:43;5.38;;;2.63;;
85218;SDS011;75606;40.152;44.490;2024-03-23T08:06:10;8.45;;;2.80;;
85218;SDS011;75606;40.152;44.490;2024-03-23T08:08:45;7.07;;;3.70;;
85218;SDS011;75606;40.152;44.490;2024-03-23T08:11:12;8.38;;;4.15;;
85218;SDS011;75606;40.152;44.490;2024-03-23T08:13:39;9.48;;;3.30;;
85218;SDS011;75606;40.152;44.490;2024-03-23T08:16:06;8.02;;;3.00;;
85218;SDS011;75606;40.152;44.490;2024-03-23T08:18:32;6.53;;;2.72;;
85218;SDS011;75606;40.152;44.490;2024-03-23T08:20:58;7.18;;;3.03;;
85218;SDS011;75606;40.152;44.490;2024-03-23T08:23:24;6.78;;;3.20;;
85218;SDS011;75606;40.152;44.490;2024-03-23T08:25:51;11.25;;;2.78;;
85218;SDS011;75606;40.152;44.490;2024-03-23T08:28:17;3.30;;;2.13;;
85218;SDS011;75606;40.152;44.490;2024-03-23T08:30:43;5.47;;;2.35;;
85218;SDS011;75606;40.152;44.490;2024-03-23T08:33:08;6.13;;;2.92;;
85218;SDS011;75606;40.152;44.490;2024-03-23T08:35:34;5.82;;;3.00;;
85218;SDS011;75606;40.152;44.490;2024-03-23T08:38:00;7.60;;;3.67;;
85218;SDS011;75606;40.152;44.490;2024-03-23T08:40:25;8.32;;;2.38;;
85218;SDS011;75606;40.152;44.490;2024-03-23T08:42:51;5.30;;;3.33;;
85218;SDS011;75606;40.152;44.490;2024-03-23T08:45:17;7.63;;;3.35;;
85218;SDS011;75606;40.152;44.490;2024-03-23T08:47:42;7.20;;;3.22;;
85218;SDS011;75606;40.152;44.490;2024-03-23T08:50:08;5.30;;;3.50;;
85218;SDS011;75606;40.152;44.490;2024-03-23T08:52:34;6.38;;;3.13;;
85218;SDS011;75606;40.152;44.490;2024-03-23T08:55:00;9.02;;;3.42;;
85218;SDS011;75606;40.152;44.490;2024-03-23T08:57:26;6.28;;;3.63;;
85218;SDS011;75606;40.152;44.490;2024-03-23T08:59:53;8.27;;;4.65;;
85218;SDS011;75606;40.152;44.490;2024-03-23T09:02:18;7.75;;;3.63;;
85218;SDS011;75606;40.152;44.490;2024-03-23T09:04:44;6.35;;;3.25;;
85218;SDS011;75606;40.152;44.490;2024-03-23T09:07:10;4.88;;;2.90;;
85218;SDS011;75606;40.152;44.490;2024-03-23T09:09:38;3.92;;;3.35;;
85218;SDS011;75606;40.152;44.490;2024-03-23T09:14:30;5.70;;;4.63;;
85218;SDS011;75606;40.152;44.490;2024-03-23T09:16:56;9.30;;;4.50;;
85218;SDS011;75606;40.152;44.490;2024-03-23T09:19:22;9.73;;;5.20;;
85218;SDS011;75606;40.152;44.490;2024-03-23T09:21:48;7.35;;;4.72;;
85218;SDS011;75606;40.152;44.490;2024-03-23T09:24:14;8.90;;;4.53;;
85218;SDS011;75606;40.152;44.490;2024-03-23T09:26:40;7.18;;;4.57;;
85218;SDS011;75606;40.152;44.490;2024-03-23T09:29:05;8.25;;;4.38;;
85218;SDS011;75606;40.152;44.490;2024-03-23T09:31:31;4.85;;;2.90;;
85218;SDS011;75606;40.152;44.490;2024-03-23T09:33:58;4.72;;;2.90;;
85218;SDS011;75606;40.152;44.490;2024-03-23T09:36:24;4.07;;;2.90;;
85218;SDS011;75606;40.152;44.490;2024-03-23T09:38:50;6.13;;;2.88;;
85218;SDS011;75606;40.152;44.490;2024-03-23T09:41:15;6.32;;;2.75;;
85218;SDS011;75606;40.152;44.490;2024-03-23T09:43:41;8.13;;;4.28;;
85218;SDS011;75606;40.152;44.490;2024-03-23T09:46:07;5.68;;;3.05;;
85218;SDS011;75606;40.152;44.490;2024-03-23T09:48:33;6.90;;;3.50;;
85218;SDS011;75606;40.152;44.490;2024-03-23T09:50:59;5.07;;;3.30;;
85218;SDS011;75606;40.152;44.490;2024-03-23T09:53:24;4.40;;;2.92;;
85218;SDS011;75606;40.152;44.490;2024-03-23T09:55:50;5.78;;;3.55;;
85218;SDS011;75606;40.152;44.490;2024-03-23T09:58:16;5.25;;;3.42;;
85218;SDS011;75606;40.152;44.490;2024-03-23T10:00:43;5.95;;;3.70;;
85218;SDS011;75606;40.152;44.490;2024-03-23T10:03:09;6.45;;;3.20;;
85218;SDS011;75606;40.152;44.490;2024-03-23T10:05:36;7.78;;;3.40;;
85218;SDS011;75606;40.152;44.490;2024-03-23T10:10:43;8.18;;;4.85;;
85218;SDS011;75606;40.152;44.490;2024-03-23T10:13:09;8.38;;;4.00;;
85218;SDS011;75606;40.152;44.490;2024-03-23T10:15:35;7.10;;;4.00;;
85218;SDS011;75606;40.152;44.490;2024-03-23T10:18:19;4.88;;;3.30;;
85218;SDS011;75606;40.152;44.490;2024-03-23T10:20:52;8.85;;;4.07;;
85218;SDS011;75606;40.152;44.490;2024-03-23T10:23:18;10.05;;;3.83;;
85218;SDS011;75606;40.152;44.490;2024-03-23T10:25:44;7.13;;;3.90;;
85218;SDS011;75606;40.152;44.490;2024-03-23T10:28:11;9.52;;;4.30;;
85218;SDS011;75606;40.152;44.490;2024-03-23T10:30:36;10.82;;;4.85;;
85218;SDS011;75606;40.152;44.490;2024-03-23T10:33:09;5.85;;;3.53;;
85218;SDS011;75606;40.152;44.490;2024-03-23T10:35:36;10.95;;;5.32;;
85218;SDS011;75606;40.152;44.490;2024-03-23T10:38:05;9.00;;;4.22;;
85218;SDS011;75606;40.152;44.490;2024-03-23T10:40:34;6.90;;;3.95;;
85218;SDS011;75606;40.152;44.490;2024-03-23T10:43:00;7.85;;;3.95;;
85218;SDS011;75606;40.152;44.490;2024-03-23T10:45:28;9.05;;;4.40;;
85218;SDS011;75606;40.152;44.490;2024-03-23T10:47:53;6.38;;;3.80;;
85218;SDS011;75606;40.152;44.490;2024-03-23T10:50:19;7.38;;;3.38;;
85218;SDS011;75606;40.152;44.490;2024-03-23T10:52:48;7.40;;;3.50;;
85218;SDS011;75606;40.152;44.490;2024-03-23T10:55:17;8.50;;;3.63;;
85218;SDS011;75606;40.152;44.490;2024-03-23T10:57:54;5.72;;;3.78;;
85218;SDS011;75606;40.152;44.490;2024-03-23T11:00:20;4.82;;;3.72;;
85218;SDS011;75606;40.152;44.490;2024-03-23T11:02:49;6.13;;;3.00;;
85218;SDS011;75606;40.152;44.490;2024-03-23T11:07:50;4.45;;;2.90;;
85218;SDS011;75606;40.152;44.490;2024-03-23T11:10:30;5.78;;;3.58;;
85218;SDS011;75606;40.152;44.490;2024-03-23T11:12:58;7.43;;;3.40;;
85218;SDS011;75606;40.152;44.490;2024-03-23T11:15:26;6.25;;;3.63;;
85218;SDS011;75606;40.152;44.490;2024-03-23T11:18:04;6.05;;;2.75;;
85218;SDS011;75606;40.152;44.490;2024-03-23T11:20:36;6.07;;;2.60;;
85218;SDS011;75606;40.152;44.490;2024-03-23T11:25:29;8.45;;;4.05;;
85218;SDS011;75606;40.152;44.490;2024-03-23T11:27:55;8.35;;;3.83;;
85218;SDS011;75606;40.152;44.490;2024-03-23T11:30:42;6.88;;;3.63;;
85218;SDS011;75606;40.152;44.490;2024-03-23T11:33:08;4.50;;;2.88;;
85218;SDS011;75606;40.152;44.490;2024-03-23T11:35:40;4.68;;;3.00;;
85218;SDS011;75606;40.152;44.490;2024-03-23T11:38:10;6.10;;;3.50;;
85218;SDS011;75606;40.152;44.490;2024-03-23T11:40:37;5.50;;;3.85;;
85218;SDS011;75606;40.152;44.490;2024-03-23T11:43:07;7.85;;;4.18;;
85218;SDS011;75606;40.152;44.490;2024-03-23T11:45:34;7.03;;;4.57;;
85218;SDS011;75606;40.152;44.490;2024-03-23T11:50:42;6.78;;;4.18;;
85218;SDS011;75606;40.152;44.490;2024-03-23T11:53:13;5.97;;;4.07;;
85218;SDS011;75606;40.152;44.490;2024-03-23T11:55:43;6.82;;;4.32;;
85218;SDS011;75606;40.152;44.490;2024-03-23T11:58:12;10.95;;;6.43;;
85218;SDS011;75606;40.152;44.490;2024-03-23T12:00:39;8.80;;;5.35;;
85218;SDS011;75606;40.152;44.490;2024-03-23T12:03:05;15.68;;;6.60;;
85218;SDS011;75606;40.152;44.490;2024-03-23T12:05:31;10.10;;;6.15;;
85218;SDS011;75606;40.152;44.490;2024-03-23T12:08:16;8.60;;;5.43;;
85218;SDS011;75606;40.152;44.490;2024-03-23T12:10:47;10.93;;;6.57;;
85218;SDS011;75606;40.152;44.490;2024-03-23T12:13:17;9.80;;;5.95;;
85218;SDS011;75606;40.152;44.490;2024-03-23T12:15:46;8.13;;;5.35;;
85218;SDS011;75606;40.152;44.490;2024-03-23T12:18:16;11.85;;;6.85;;
85218;SDS011;75606;40.152;44.490;2024-03-23T12:20:43;10.23;;;5.32;;
85218;SDS011;75606;40.152;44.490;2024-03-23T12:23:14;9.55;;;5.43;;
85218;SDS011;75606;40.152;44.490;2024-03-23T12:25:40;8.70;;;6.13;;
85218;SDS011;75606;40.152;44.490;2024-03-23T12:28:06;10.43;;;7.07;;
85218;SDS011;75606;40.152;44.490;2024-03-23T12:30:35;15.48;;;7.20;;
85218;SDS011;75606;40.152;44.490;2024-03-23T12:33:05;9.68;;;6.50;;
85218;SDS011;75606;40.152;44.490;2024-03-23T12:35:31;11.57;;;7.00;;
85218;SDS011;75606;40.152;44.490;2024-03-23T12:37:57;8.45;;;5.28;;
85218;SDS011;75606;40.152;44.490;2024-03-23T12:40:23;12.60;;;6.07;;
85218;SDS011;75606;40.152;44.490;2024-03-23T12:42:49;10.35;;;6.75;;
85218;SDS011;75606;40.152;44.490;2024-03-23T12:45:14;8.45;;;6.10;;
85218;SDS011;75606;40.152;44.490;2024-03-23T12:47:40;11.60;;;6.63;;
85218;SDS011;75606;40.152;44.490;2024-03-23T12:50:08;15.27;;;8.90;;
85218;SDS011;75606;40.152;44.490;2024-03-23T12:52:35;13.90;;;8.75;;
85218;SDS011;75606;40.152;44.490;2024-03-23T12:55:01;14.65;;;8.77;;
85218;SDS011;75606;40.152;44.490;2024-03-23T12:57:28;22.50;;;10.93;;
85218;SDS011;75606;40.152;44.490;2024-03-23T12:59:54;17.30;;;9.20;;
85218;SDS011;75606;40.152;44.490;2024-03-23T13:02:23;15.35;;;8.70;;
85218;SDS011;75606;40.152;44.490;2024-03-23T13:04:52;10.02;;;5.93;;
85218;SDS011;75606;40.152;44.490;2024-03-23T13:07:18;12.80;;;7.57;;
85218;SDS011;75606;40.152;44.490;2024-03-23T13:09:50;12.45;;;6.85;;
85218;SDS011;75606;40.152;44.490;2024-03-23T13:12:17;9.48;;;6.13;;
85218;SDS011;75606;40.152;44.490;2024-03-23T13:14:46;11.75;;;5.82;;
85218;SDS011;75606;40.152;44.490;2024-03-23T13:17:12;14.68;;;7.47;;
85218;SDS011;75606;40.152;44.490;2024-03-23T13:19:38;10.10;;;6.70;;
85218;SDS011;75606;40.152;44.490;2024-03-23T13:22:04;8.70;;;5.00;;
85218;SDS011;75606;40.152;44.490;2024-03-23T13:24:30;5.40;;;4.22;;
85218;SDS011;75606;40.152;44.490;2024-03-23T13:26:57;9.75;;;5.85;;
85218;SDS011;75606;40.152;44.490;2024-03-23T13:29:23;8.70;;;5.25;;
85218;SDS011;75606;40.152;44.490;2024-03-23T13:31:50;7.97;;;5.07;;
85218;SDS011;75606;40.152;44.490;2024-03-23T13:34:16;10.45;;;6.07;;
85218;SDS011;75606;40.152;44.490;2024-03-23T13:36:42;7.90;;;5.22;;
85218;SDS011;75606;40.152;44.490;2024-03-23T13:39:09;7.85;;;5.13;;
85218;SDS011;75606;40.152;44.490;2024-03-23T13:41:40;6.10;;;4.40;;
85218;SDS011;75606;40.152;44.490;2024-03-23T13:44:07;6.97;;;4.47;;
85218;SDS011;75606;40.152;44.490;2024-03-23T13:46:35;6.72;;;4.15;;
85218;SDS011;75606;40.152;44.490;2024-03-23T13:49:01;5.95;;;4.43;;
85218;SDS011;75606;40.152;44.490;2024-03-23T13:51:27;10.93;;;5.93;;
85218;SDS011;75606;40.152;44.490;2024-03-23T13:53:53;13.95;;;7.50;;
85218;SDS011;75606;40.152;44.490;2024-03-23T13:56:19;13.35;;;7.28;;
85218;SDS011;75606;40.152;44.490;2024-03-23T13:58:45;16.05;;;9.20;;
85218;SDS011;75606;40.152;44.490;2024-03-23T14:01:14;14.55;;;7.78;;
85218;SDS011;75606;40.152;44.490;2024-03-23T14:03:41;9.98;;;5.63;;
85218;SDS011;75606;40.152;44.490;2024-03-23T14:06:08;12.55;;;7.82;;
85218;SDS011;75606;40.152;44.490;2024-03-23T14:08:37;10.77;;;6.22;;
85218;SDS011;75606;40.152;44.490;2024-03-23T14:11:07;12.00;;;7.03;;
85218;SDS011;75606;40.152;44.490;2024-03-23T14:13:36;10.85;;;6.68;;
85218;SDS011;75606;40.152;44.490;2024-03-23T14:16:02;15.80;;;8.65;;
85218;SDS011;75606;40.152;44.490;2024-03-23T14:18:28;11.50;;;7.43;;
85218;SDS011;75606;40.152;44.490;2024-03-23T14:20:58;11.32;;;8.15;;
85218;SDS011;75606;40.152;44.490;2024-03-23T14:23:28;14.20;;;8.30;;
85218;SDS011;75606;40.152;44.490;2024-03-23T14:25:58;16.52;;;8.63;;
85218;SDS011;75606;40.152;44.490;2024-03-23T14:28:26;12.63;;;7.90;;
85218;SDS011;75606;40.152;44.490;2024-03-23T14:30:51;10.57;;;6.80;;
85218;SDS011;75606;40.152;44.490;2024-03-23T14:33:20;10.15;;;6.57;;
85218;SDS011;75606;40.152;44.490;2024-03-23T14:35:55;8.27;;;5.47;;
85218;SDS011;75606;40.152;44.490;2024-03-23T14:38:22;7.63;;;4.65;;
85218;SDS011;75606;40.152;44.490;2024-03-23T14:40:48;10.70;;;6.50;;
85218;SDS011;75606;40.152;44.490;2024-03-23T14:43:14;10.25;;;6.72;;
85218;SDS011;75606;40.152;44.490;2024-03-23T14:48:33;16.85;;;10.23;;
85218;SDS011;75606;40.152;44.490;2024-03-23T14:51:00;15.77;;;8.25;;
85218;SDS011;75606;40.152;44.490;2024-03-23T14:53:29;12.93;;;7.78;;
85218;SDS011;75606;40.152;44.490;2024-03-23T14:55:55;14.68;;;8.65;;
85218;SDS011;75606;40.152;44.490;2024-03-23T14:58:21;15.30;;;8.55;;
85218;SDS011;75606;40.152;44.490;2024-03-23T15:00:48;15.07;;;8.05;;
85218;SDS011;75606;40.152;44.490;2024-03-23T15:03:14;9.35;;;6.20;;
85218;SDS011;75606;40.152;44.490;2024-03-23T15:05:40;10.30;;;6.32;;
85218;SDS011;75606;40.152;44.490;2024-03-23T15:08:06;8.73;;;6.70;;
85218;SDS011;75606;40.152;44.490;2024-03-23T15:10:35;9.77;;;5.65;;
85218;SDS011;75606;40.152;44.490;2024-03-23T15:13:01;7.35;;;5.28;;
85218;SDS011;75606;40.152;44.490;2024-03-23T15:15:27;7.43;;;5.20;;
85218;SDS011;75606;40.152;44.490;2024-03-23T15:17:53;8.20;;;5.93;;
85218;SDS011;75606;40.152;44.490;2024-03-23T15:20:18;6.03;;;4.30;;
85218;SDS011;75606;40.152;44.490;2024-03-23T15:22:47;6.18;;;4.30;;
85218;SDS011;75606;40.152;44.490;2024-03-23T15:25:13;6.70;;;4.82;;
85218;SDS011;75606;40.152;44.490;2024-03-23T15:27:38;9.85;;;5.40;;
85218;SDS011;75606;40.152;44.490;2024-03-23T15:30:04;10.93;;;6.22;;
85218;SDS011;75606;40.152;44.490;2024-03-23T15:32:32;8.18;;;5.72;;
85218;SDS011;75606;40.152;44.490;2024-03-23T15:35:00;6.78;;;4.82;;